Time;durP1;ratioP1;P1;durP2;ratioP2;P2;SDS_P1;SDS_P2;PMS_P1;PMS_P2;Temp;Humidity;BMP_temperature;BMP_pressure;BME280_temperature;BME280_humidity;BME280_pressure;Samples;Min_cycle;Max_cycle;Signal;HPM_P1;HPM_P2
2023/07/19 00:00:27;;;;;;;;;;;;;;;18.09;50.18;98031.81;2618961;28;19928;-83
2023/07/19 00:02:03;;;;;;;;;;;;;;;17.92;50.38;98036.41;2618526;28;19939;-83
2023/07/19 00:03:20;;;;;;;;;;;;;;;17.91;51.06;98033.84;2618489;28;19989;-83
2023/07/19 00:04:36;;;;;;;;;;;;;;;17.86;51.39;98031.47;2618698;28;20015;-82
2023/07/19 00:05:51;;;;;;;;;;;;;;;17.76;52.12;98031.22;2618913;28;19959;-82
2023/07/19 00:07:06;;;;;;;;;;;;;;;17.79;51.74;98031.03;2619562;28;20050;-82
2023/07/19 00:08:22;;;;;;;;;;;;;;;17.83;51.21;98025.56;2618708;28;19951;-82
2023/07/19 00:09:37;;;;;;;;;;;;;;;17.72;51.93;98035.03;2619429;28;20424;-83
2023/07/19 00:10:53;;;;;;;;;;;;;;;17.60;52.92;98033.16;2619209;28;20020;-83
2023/07/19 00:12:08;;;;;;;;;;;;;;;17.42;52.91;98035.16;2619442;28;19932;-83
2023/07/19 00:13:24;;;;;;;;;;;;;;;17.46;52.95;98031.38;2618762;28;19955;-83
2023/07/19 00:14:39;;;;;;;;;;;;;;;17.44;52.83;98036.78;2619740;28;19935;-83
2023/07/19 00:15:54;;;;;;;;;;;;;;;17.51;53.31;98034.59;2618876;28;20820;-83
2023/07/19 00:17:10;;;;;;;;;;;;;;;17.43;53.53;98042.16;2618265;28;19928;-83
2023/07/19 00:18:25;;;;;;;;;;;;;;;17.54;52.83;98036.22;2617995;28;20465;-82
2023/07/19 00:19:41;;;;;;;;;;;;;;;17.63;52.48;98040.91;2619249;28;19929;-83
2023/07/19 00:20:56;;;;;;;;;;;;;;;17.41;53.29;98036.97;2617459;28;19939;-83
2023/07/19 00:22:11;;;;;;;;;;;;;;;17.45;53.39;98037.63;2618930;28;20437;-83
2023/07/19 00:23:27;;;;;;;;;;;;;;;17.51;52.98;98037.25;2618444;28;20398;-83
2023/07/19 00:24:42;;;;;;;;;;;;;;;17.52;52.86;98038.94;2618268;28;19928;-83
2023/07/19 00:25:58;;;;;;;;;;;;;;;17.49;53.40;98034.69;2618085;28;19973;-82
2023/07/19 00:27:13;;;;;;;;;;;;;;;17.37;53.57;98035.44;2618909;28;20380;-83
2023/07/19 00:28:29;;;;;;;;;;;;;;;17.28;54.24;98038.69;2618809;28;19931;-83
2023/07/19 00:29:44;;;;;;;;;;;;;;;17.45;53.50;98033.19;2619051;28;19924;-83
2023/07/19 00:31:00;;;;;;;;;;;;;;;17.41;54.06;98031.69;2623828;28;19931;-83
2023/07/19 00:32:16;;;;;;;;;;;;;;;17.40;53.95;98032.63;2621452;28;20557;-83
2023/07/19 00:33:32;;;;;;;;;;;;;;;17.39;53.68;98035.38;2618427;28;19928;-83
2023/07/19 00:34:47;;;;;;;;;;;;;;;17.33;54.26;98037.47;2619756;28;19967;-83
2023/07/19 00:36:03;;;;;;;;;;;;;;;17.33;53.91;98032.16;2618964;28;20261;-83
2023/07/19 00:37:18;;;;;;;;;;;;;;;17.18;54.66;98025.16;2619478;28;19928;-83
2023/07/19 00:38:33;;;;;;;;;;;;;;;17.12;55.05;98028.19;2618831;28;19932;-83
2023/07/19 00:39:49;;;;;;;;;;;;;;;17.13;54.71;98033.41;2619129;28;19931;-83
2023/07/19 00:41:04;;;;;;;;;;;;;;;17.03;55.26;98026.97;2619142;28;19924;-83
2023/07/19 00:42:20;;;;;;;;;;;;;;;16.70;56.38;98023.59;2618751;28;19931;-83
2023/07/19 00:43:35;;;;;;;;;;;;;;;16.62;56.86;98023.19;2619195;28;19952;-83
2023/07/19 00:44:51;;;;;;;;;;;;;;;16.38;57.88;98024.56;2618521;28;19960;-83
2023/07/19 00:46:07;;;;;;;;;;;;;;;16.46;57.48;98020.63;2619204;28;19955;-84
2023/07/19 00:47:22;;;;;;;;;;;;;;;16.37;57.85;98016.75;2618652;28;19963;-83
2023/07/19 00:48:38;;;;;;;;;;;;;;;16.22;58.67;98019.34;2617540;28;19928;-83
2023/07/19 00:49:54;;;;;;;;;;;;;;;16.30;57.96;98024.16;2618222;28;20019;-83
2023/07/19 00:51:09;;;;;;;;;;;;;;;16.53;57.39;98024.59;2619005;28;19928;-83
2023/07/19 00:52:25;;;;;;;;;;;;;;;16.50;56.96;98033.56;2619008;28;19946;-83
2023/07/19 00:53:40;;;;;;;;;;;;;;;16.33;57.85;98028.41;2619080;28;20024;-83
2023/07/19 00:54:56;;;;;;;;;;;;;;;16.28;57.92;98025.19;2619071;28;19924;-84
2023/07/19 00:56:11;;;;;;;;;;;;;;;16.38;58.01;98029.00;2619720;28;19924;-83
2023/07/19 00:57:27;;;;;;;;;;;;;;;16.29;57.77;98032.19;2619013;28;19962;-82
2023/07/19 00:58:43;;;;;;;;;;;;;;;16.29;57.45;98029.53;2619153;28;20408;-83
2023/07/19 00:59:59;;;;;;;;;;;;;;;16.31;57.47;98030.28;2618896;28;19929;-83
2023/07/19 01:01:14;;;;;;;;;;;;;;;16.43;57.25;98026.94;2618765;28;20173;-83
2023/07/19 01:02:30;;;;;;;;;;;;;;;16.35;57.65;98027.38;2619003;28;19928;-83
2023/07/19 01:03:45;;;;;;;;;;;;;;;16.35;56.74;98021.25;2618567;28;19929;-83
2023/07/19 01:05:01;;;;;;;;;;;;;;;16.49;56.55;98013.38;2619043;28;19931;-83
2023/07/19 01:06:17;;;;;;;;;;;;;;;16.34;57.13;98027.47;2618458;28;20395;-83
2023/07/19 01:07:32;;;;;;;;;;;;;;;16.17;57.97;98029.28;2619488;28;19967;-83
2023/07/19 01:08:48;;;;;;;;;;;;;;;16.26;57.54;98029.72;2617292;28;20497;-83
2023/07/19 01:10:04;;;;;;;;;;;;;;;16.29;57.49;98025.13;2618524;28;20430;-83
2023/07/19 01:11:20;;;;;;;;;;;;;;;16.28;57.59;98023.41;2617984;28;20392;-83
2023/07/19 01:12:35;;;;;;;;;;;;;;;16.46;56.62;98016.19;2619220;28;19959;-83
2023/07/19 01:13:51;;;;;;;;;;;;;;;16.39;57.27;98020.13;2619301;28;20009;-83
2023/07/19 01:15:09;;;;;;;;;;;;;;;16.25;57.88;98018.28;2618561;28;19932;-83
2023/07/19 01:16:24;;;;;;;;;;;;;;;16.13;58.35;98022.50;2619058;28;20298;-83
2023/07/19 01:17:40;;;;;;;;;;;;;;;16.12;58.49;98015.50;2619007;28;19972;-82
2023/07/19 01:18:55;;;;;;;;;;;;;;;16.16;58.26;98019.66;2619036;28;20270;-83
2023/07/19 01:20:11;;;;;;;;;;;;;;;16.41;57.83;98023.53;2619067;28;19978;-82
2023/07/19 01:21:26;;;;;;;;;;;;;;;16.33;57.73;98028.41;2618595;28;19928;-82
2023/07/19 01:22:42;;;;;;;;;;;;;;;16.09;58.76;98023.63;2618489;28;19931;-83
2023/07/19 01:23:57;;;;;;;;;;;;;;;15.96;59.34;98028.72;2618531;28;19940;-83
2023/07/19 01:25:12;;;;;;;;;;;;;;;15.85;59.05;98028.44;2619103;28;20311;-84
2023/07/19 01:26:28;;;;;;;;;;;;;;;15.89;59.19;98020.31;2618656;28;19970;-83
2023/07/19 01:27:43;;;;;;;;;;;;;;;15.82;60.02;98026.88;2618469;28;20406;-83
2023/07/19 01:28:59;;;;;;;;;;;;;;;15.74;60.14;98029.94;2618456;28;20896;-83
2023/07/19 01:30:14;;;;;;;;;;;;;;;15.84;59.76;98026.75;2618554;28;20403;-83
2023/07/19 01:31:30;;;;;;;;;;;;;;;15.79;59.80;98024.41;2618719;28;19929;-83
2023/07/19 01:32:45;;;;;;;;;;;;;;;15.66;60.62;98038.28;2618642;28;19982;-83
2023/07/19 01:34:01;;;;;;;;;;;;;;;15.57;61.22;98028.22;2618789;28;20269;-83
2023/07/19 01:35:16;;;;;;;;;;;;;;;15.63;61.04;98027.88;2618362;28;19986;-84
2023/07/19 01:36:31;;;;;;;;;;;;;;;15.65;60.80;98028.66;2618462;28;19928;-83
2023/07/19 01:37:47;;;;;;;;;;;;;;;15.70;60.61;98019.63;2618802;28;19932;-83
2023/07/19 01:39:02;;;;;;;;;;;;;;;15.67;60.77;98033.84;2618115;28;19982;-83
2023/07/19 01:40:18;;;;;;;;;;;;;;;15.67;60.76;98026.78;2619062;28;19929;-83
2023/07/19 01:41:33;;;;;;;;;;;;;;;15.50;61.33;98024.19;2618927;28;19935;-83
2023/07/19 01:42:49;;;;;;;;;;;;;;;15.49;61.19;98022.50;2618931;28;20001;-83
2023/07/19 01:44:04;;;;;;;;;;;;;;;15.47;61.30;98021.75;2618937;28;19929;-83
2023/07/19 01:45:19;;;;;;;;;;;;;;;15.46;61.55;98014.75;2619019;28;19932;-83
2023/07/19 01:46:38;;;;;;;;;;;;;;;15.67;60.47;98015.34;2618600;28;19932;-83
2023/07/19 01:47:54;;;;;;;;;;;;;;;15.58;61.18;98010.63;2619031;28;19975;-83
2023/07/19 01:49:09;;;;;;;;;;;;;;;15.57;60.47;98007.09;2621029;28;20417;-83
2023/07/19 01:50:24;;;;;;;;;;;;;;;15.56;60.51;98008.06;2620522;28;19925;-83
2023/07/19 01:51:39;;;;;;;;;;;;;;;15.37;61.49;98009.06;2621514;28;19925;-83
2023/07/19 01:52:55;;;;;;;;;;;;;;;15.38;61.94;98018.69;2620970;28;19925;-83
2023/07/19 01:54:11;;;;;;;;;;;;;;;15.42;61.34;98013.25;2621081;28;19932;-83
2023/07/19 01:55:27;;;;;;;;;;;;;;;15.51;60.98;98020.66;2620504;28;19932;-83
2023/07/19 01:56:42;;;;;;;;;;;;;;;15.56;60.66;98018.59;2620695;28;19971;-83
2023/07/19 01:57:57;;;;;;;;;;;;;;;15.64;60.80;98011.09;2620926;28;19928;-83
2023/07/19 01:59:13;;;;;;;;;;;;;;;15.53;61.38;98019.63;2621360;28;19951;-83
2023/07/19 02:00:28;;;;;;;;;;;;;;;15.77;60.69;98020.97;2620533;28;20418;-83
2023/07/19 02:01:44;;;;;;;;;;;;;;;15.73;60.63;98016.81;2620576;28;19929;-83
2023/07/19 02:03:00;;;;;;;;;;;;;;;15.77;61.13;98021.84;2620921;28;19928;-83
2023/07/19 02:04:15;;;;;;;;;;;;;;;15.81;61.21;98012.78;2621253;28;19928;-83
2023/07/19 02:05:30;;;;;;;;;;;;;;;15.86;62.47;98017.00;2621117;28;19936;-83
2023/07/19 02:06:46;;;;;;;;;;;;;;;15.89;63.23;98008.88;2621303;28;19929;-83
2023/07/19 02:08:03;;;;;;;;;;;;;;;15.91;62.35;98007.88;2621296;28;19939;-83
2023/07/19 02:09:18;;;;;;;;;;;;;;;15.74;63.48;98007.94;2621036;28;20346;-83
2023/07/19 02:10:34;;;;;;;;;;;;;;;15.74;63.58;97997.41;2620891;28;20433;-83
2023/07/19 02:11:49;;;;;;;;;;;;;;;15.67;64.21;98005.66;2621286;28;19974;-83
2023/07/19 02:13:04;;;;;;;;;;;;;;;15.66;63.64;98000.47;2620575;28;19928;-83
2023/07/19 02:14:20;;;;;;;;;;;;;;;15.56;63.72;98008.06;2621168;28;19928;-84
2023/07/19 02:15:35;;;;;;;;;;;;;;;15.63;63.42;97998.00;2620644;28;19928;-83
2023/07/19 02:16:50;;;;;;;;;;;;;;;15.71;63.26;97994.94;2621347;28;19929;-83
2023/07/19 02:18:06;;;;;;;;;;;;;;;15.68;63.36;97998.59;2620449;28;19928;-83
2023/07/19 02:19:21;;;;;;;;;;;;;;;15.50;64.66;98008.38;2620914;28;20392;-83
2023/07/19 02:20:38;;;;;;;;;;;;;;;15.64;63.48;98002.34;2620656;28;19932;-83
2023/07/19 02:21:53;;;;;;;;;;;;;;;15.61;64.79;98005.16;2620456;28;19936;-83
2023/07/19 02:23:09;;;;;;;;;;;;;;;15.48;64.41;98003.19;2620618;28;19924;-83
2023/07/19 02:24:24;;;;;;;;;;;;;;;15.47;64.09;98014.69;2620477;28;19943;-81
2023/07/19 02:25:41;;;;;;;;;;;;;;;15.52;64.25;98017.09;2620753;28;19928;-81
2023/07/19 02:26:56;;;;;;;;;;;;;;;15.59;63.99;98017.59;2620040;28;19982;-81
2023/07/19 02:28:11;;;;;;;;;;;;;;;15.59;63.84;98022.88;2620600;28;20376;-81
2023/07/19 02:29:27;;;;;;;;;;;;;;;15.64;63.03;98012.91;2620943;28;20456;-81
2023/07/19 02:30:43;;;;;;;;;;;;;;;15.63;62.51;98014.66;2620713;28;19929;-81
2023/07/19 02:31:58;;;;;;;;;;;;;;;15.58;62.92;98022.00;2620823;28;20379;-81
2023/07/19 02:33:14;;;;;;;;;;;;;;;15.53;63.25;98024.88;2620750;28;20304;-82
2023/07/19 02:34:30;;;;;;;;;;;;;;;15.53;63.41;98021.41;2620659;28;20601;-81
2023/07/19 02:35:51;;;;;;;;;;;;;;;15.21;66.25;98027.50;2620767;28;20380;-84
2023/07/19 02:37:07;;;;;;;;;;;;;;;15.24;67.54;98037.03;2620558;28;19928;-81
2023/07/19 02:38:23;;;;;;;;;;;;;;;15.12;66.66;98030.63;2620489;28;19932;-81
2023/07/19 02:39:38;;;;;;;;;;;;;;;15.03;67.53;98036.41;2620587;28;19928;-81
2023/07/19 02:40:58;;;;;;;;;;;;;;;14.93;68.75;98031.59;2620970;28;19932;-81
2023/07/19 02:42:13;;;;;;;;;;;;;;;15.01;68.54;98028.56;2620859;28;19963;-82
2023/07/19 02:43:29;;;;;;;;;;;;;;;15.17;67.15;98025.09;2620812;28;19978;-82
2023/07/19 02:44:44;;;;;;;;;;;;;;;15.25;66.96;98025.56;2620193;28;19971;-82
2023/07/19 02:46:00;;;;;;;;;;;;;;;15.25;67.25;98029.03;2620719;28;20279;-82
2023/07/19 02:47:15;;;;;;;;;;;;;;;15.11;68.12;98023.66;2620538;28;19946;-82
2023/07/19 02:48:30;;;;;;;;;;;;;;;15.19;68.52;98026.75;2620480;28;19932;-82
2023/07/19 02:49:46;;;;;;;;;;;;;;;15.25;66.96;98026.41;2620929;28;19966;-82
2023/07/19 02:51:01;;;;;;;;;;;;;;;15.35;66.87;98032.03;2620360;28;19925;-82
2023/07/19 02:52:17;;;;;;;;;;;;;;;15.25;67.05;98029.03;2620290;28;20414;-82
2023/07/19 02:53:32;;;;;;;;;;;;;;;15.23;67.26;98038.81;2620267;28;19932;-82
2023/07/19 02:54:47;;;;;;;;;;;;;;;15.18;68.13;98029.44;2620351;28;19928;-82
2023/07/19 02:56:03;;;;;;;;;;;;;;;15.18;68.13;98035.59;2619843;28;20011;-82
2023/07/19 02:57:18;;;;;;;;;;;;;;;15.28;67.36;98046.50;2620472;28;19929;-82
2023/07/19 02:58:34;;;;;;;;;;;;;;;15.33;66.29;98035.69;2619950;28;19940;-82
2023/07/19 02:59:49;;;;;;;;;;;;;;;15.47;66.93;98037.56;2618787;28;20886;-82
2023/07/19 03:01:05;;;;;;;;;;;;;;;15.52;67.21;98038.19;2619871;28;20064;-82
2023/07/19 03:02:20;;;;;;;;;;;;;;;15.61;65.29;98035.03;2619483;28;19979;-82
2023/07/19 03:03:35;;;;;;;;;;;;;;;15.50;66.88;98040.03;2619690;28;19928;-82
2023/07/19 03:04:51;;;;;;;;;;;;;;;15.40;66.62;98037.06;2620632;28;20330;-81
2023/07/19 03:06:06;;;;;;;;;;;;;;;15.38;66.15;98037.16;2620316;28;19990;-82
2023/07/19 03:07:22;;;;;;;;;;;;;;;15.37;66.31;98034.59;2620077;28;19928;-82
2023/07/19 03:08:37;;;;;;;;;;;;;;;15.49;65.51;98023.38;2619664;28;20391;-82
2023/07/19 03:09:53;;;;;;;;;;;;;;;15.41;64.98;98030.84;2620285;28;19933;-82
2023/07/19 03:11:08;;;;;;;;;;;;;;;15.48;63.90;98034.84;2620090;28;19924;-82
2023/07/19 03:12:24;;;;;;;;;;;;;;;15.71;63.40;98030.06;2620475;28;19928;-82
2023/07/19 03:13:39;;;;;;;;;;;;;;;15.74;63.33;98042.25;2620245;28;19929;-82
2023/07/19 03:14:54;;;;;;;;;;;;;;;15.84;63.57;98045.22;2620210;28;20062;-82
2023/07/19 03:16:10;;;;;;;;;;;;;;;15.87;63.47;98048.56;2620524;28;19945;-82
2023/07/19 03:17:25;;;;;;;;;;;;;;;15.84;64.68;98048.75;2620322;28;19928;-82
2023/07/19 03:18:41;;;;;;;;;;;;;;;15.81;63.84;98051.56;2620169;28;19987;-82
2023/07/19 03:19:56;;;;;;;;;;;;;;;15.84;63.66;98032.91;2620192;28;19928;-82
2023/07/19 03:21:12;;;;;;;;;;;;;;;15.84;64.97;98039.94;2620254;28;19975;-82
2023/07/19 03:22:27;;;;;;;;;;;;;;;15.81;65.97;98033.06;2620336;28;20526;-82
2023/07/19 03:23:42;;;;;;;;;;;;;;;15.78;64.84;98035.88;2620086;28;19958;-83
2023/07/19 03:24:57;;;;;;;;;;;;;;;15.83;65.43;98015.38;2620192;28;19950;-82
2023/07/19 03:26:13;;;;;;;;;;;;;;;15.78;66.54;98009.47;2620300;28;19948;-82
2023/07/19 03:27:28;;;;;;;;;;;;;;;15.75;66.18;98030.75;2620255;28;19928;-82
2023/07/19 03:28:45;;;;;;;;;;;;;;;15.80;64.27;98037.50;2620306;28;19976;-82
2023/07/19 03:30:00;;;;;;;;;;;;;;;15.72;64.16;98044.13;2619518;28;19971;-82
2023/07/19 03:31:16;;;;;;;;;;;;;;;15.58;64.77;98031.72;2620268;28;19936;-82
2023/07/19 03:32:31;;;;;;;;;;;;;;;15.60;64.67;98024.56;2620071;28;19935;-82
2023/07/19 03:33:46;;;;;;;;;;;;;;;15.73;65.92;98036.16;2620332;28;20330;-82
2023/07/19 03:35:03;;;;;;;;;;;;;;;15.70;65.48;98049.50;2620412;28;19932;-82
2023/07/19 03:36:18;;;;;;;;;;;;;;;15.38;69.58;98046.84;2619839;28;19924;-82
2023/07/19 03:37:34;;;;;;;;;;;;;;;15.41;68.69;98043.19;2619455;28;19958;-82
2023/07/19 03:38:49;;;;;;;;;;;;;;;15.46;68.07;98042.00;2620253;28;19975;-82
2023/07/19 03:40:06;;;;;;;;;;;;;;;15.50;67.63;98043.53;2619323;28;20554;-83
2023/07/19 03:41:21;;;;;;;;;;;;;;;15.55;68.43;98035.38;2619994;28;19932;-82
2023/07/19 03:42:36;;;;;;;;;;;;;;;15.62;67.40;98036.72;2619234;28;20010;-82
2023/07/19 03:43:52;;;;;;;;;;;;;;;15.49;66.81;98035.69;2619199;28;20007;-82
2023/07/19 03:45:07;;;;;;;;;;;;;;;15.59;67.02;98043.97;2619389;28;19929;-82
2023/07/19 03:46:23;;;;;;;;;;;;;;;15.41;67.50;98046.66;2620082;28;19932;-83
2023/07/19 03:47:39;;;;;;;;;;;;;;;15.52;68.73;98048.75;2619483;28;20349;-82
2023/07/19 03:48:54;;;;;;;;;;;;;;;15.39;70.71;98046.75;2619818;28;20019;-82
2023/07/19 03:50:10;;;;;;;;;;;;;;;15.30;69.43;98052.53;2619716;28;19941;-82
2023/07/19 03:51:25;;;;;;;;;;;;;;;15.44;68.87;98051.78;2620048;28;19928;-83
2023/07/19 03:52:43;;;;;;;;;;;;;;;15.46;70.02;98054.34;2619223;28;20534;-82
2023/07/19 03:53:58;;;;;;;;;;;;;;;15.34;71.07;98046.16;2620068;28;19936;-83
2023/07/19 03:55:14;;;;;;;;;;;;;;;15.37;69.55;98050.41;2619375;28;19971;-83
2023/07/19 03:56:29;;;;;;;;;;;;;;;15.28;70.88;98054.41;2619842;28;19967;-82
2023/07/19 03:57:45;;;;;;;;;;;;;;;15.28;71.77;98059.69;2620120;28;19939;-84
2023/07/19 03:59:00;;;;;;;;;;;;;;;15.23;73.45;98061.72;2619797;28;19929;-82
2023/07/19 04:00:16;;;;;;;;;;;;;;;15.22;73.36;98068.75;2619532;28;20387;-82
2023/07/19 04:01:33;;;;;;;;;;;;;;;15.19;72.44;98074.22;2619312;28;19928;-82
2023/07/19 04:02:50;;;;;;;;;;;;;;;15.35;71.65;98063.66;2619883;28;19925;-83
2023/07/19 04:04:05;;;;;;;;;;;;;;;15.44;72.60;98066.75;2619276;28;19971;-81
2023/07/19 04:05:21;;;;;;;;;;;;;;;15.31;74.12;98074.50;2618744;28;19928;-81
2023/07/19 04:06:36;;;;;;;;;;;;;;;15.31;74.83;98077.97;2619174;28;19974;-82
2023/07/19 04:07:52;;;;;;;;;;;;;;;15.36;74.87;98080.38;2619670;28;19935;-82
2023/07/19 04:09:07;;;;;;;;;;;;;;;15.15;75.05;98087.63;2619507;28;19941;-82
2023/07/19 04:10:22;;;;;;;;;;;;;;;15.21;74.69;98084.66;2618934;28;20340;-82
2023/07/19 04:11:38;;;;;;;;;;;;;;;15.34;72.01;98090.97;2619305;28;19924;-81
2023/07/19 04:12:53;;;;;;;;;;;;;;;15.37;72.02;98089.97;2618913;28;20304;-82
2023/07/19 04:14:08;;;;;;;;;;;;;;;15.39;72.52;98090.75;2619497;28;19947;-82
2023/07/19 04:15:24;;;;;;;;;;;;;;;15.22;72.33;98089.00;2619708;28;19947;-82
2023/07/19 04:16:40;;;;;;;;;;;;;;;15.32;71.94;98087.59;2619892;28;19924;-82
2023/07/19 04:17:55;;;;;;;;;;;;;;;15.31;72.77;98079.78;2619583;28;19929;-82
2023/07/19 04:19:11;;;;;;;;;;;;;;;15.27;73.59;98070.28;2619736;28;19935;-82
2023/07/19 04:20:27;;;;;;;;;;;;;;;15.28;74.48;98072.88;2619704;28;19935;-82
2023/07/19 04:21:43;;;;;;;;;;;;;;;15.29;74.57;98064.00;2619247;28;20387;-82
2023/07/19 04:22:58;;;;;;;;;;;;;;;15.40;72.65;98060.78;2619564;28;20014;-82
2023/07/19 04:24:13;;;;;;;;;;;;;;;15.50;72.38;98069.06;2619606;28;19968;-82
2023/07/19 04:25:30;;;;;;;;;;;;;;;15.64;70.80;98066.50;2619796;28;20296;-82
2023/07/19 04:26:45;;;;;;;;;;;;;;;15.65;71.47;98065.59;2619320;28;19939;-82
2023/07/19 04:28:00;;;;;;;;;;;;;;;15.77;70.27;98058.78;2620284;28;19973;-82
2023/07/19 04:29:16;;;;;;;;;;;;;;;15.88;69.19;98058.19;2619328;28;19928;-82
2023/07/19 04:30:31;;;;;;;;;;;;;;;15.94;69.08;98060.53;2619256;28;20410;-82
2023/07/19 04:31:47;;;;;;;;;;;;;;;15.95;69.76;98066.63;2619575;28;19933;-81
2023/07/19 04:33:04;;;;;;;;;;;;;;;15.94;71.23;98068.44;2619842;28;19979;-82
2023/07/19 04:34:20;;;;;;;;;;;;;;;15.97;70.29;98066.56;2618995;28;19932;-81
2023/07/19 04:35:35;;;;;;;;;;;;;;;15.86;69.63;98073.25;2619655;28;19978;-81
2023/07/19 04:36:51;;;;;;;;;;;;;;;16.01;68.53;98076.00;2619458;28;19939;-82
2023/07/19 04:38:06;;;;;;;;;;;;;;;15.67;72.24;98076.91;2619057;28;19963;-82
2023/07/19 04:39:22;;;;;;;;;;;;;;;15.76;73.16;98075.56;2619480;28;19932;-81
2023/07/19 04:40:37;;;;;;;;;;;;;;;16.11;70.82;98064.00;2619551;28;19983;-81
2023/07/19 04:41:53;;;;;;;;;;;;;;;16.06;71.71;98074.81;2619322;28;19928;-81
2023/07/19 04:43:08;;;;;;;;;;;;;;;16.12;71.66;98065.69;2619584;28;20263;-81
2023/07/19 04:44:23;;;;;;;;;;;;;;;16.10;72.51;98060.50;2619337;28;19939;-82
2023/07/19 04:45:41;;;;;;;;;;;;;;;16.12;72.14;98062.19;2619123;28;19977;-82
2023/07/19 04:46:56;;;;;;;;;;;;;;;16.09;74.10;98055.31;2619679;28;20403;-82
2023/07/19 04:48:11;;;;;;;;;;;;;;;16.17;72.84;98057.50;2619159;28;19924;-81
2023/07/19 04:49:27;;;;;;;;;;;;;;;16.18;72.03;98054.75;2619528;28;19925;-81
2023/07/19 04:50:42;;;;;;;;;;;;;;;16.08;72.53;98045.69;2619172;28;19940;-81
2023/07/19 04:51:59;;;;;;;;;;;;;;;16.06;72.85;98052.81;2619019;28;19936;-81
2023/07/19 04:53:14;;;;;;;;;;;;;;;16.01;73.08;98047.81;2618814;28;19977;-81
2023/07/19 04:54:29;;;;;;;;;;;;;;;15.99;73.33;98052.31;2619070;28;19929;-81
2023/07/19 04:55:45;;;;;;;;;;;;;;;15.93;74.57;98045.63;2618620;28;19928;-82
2023/07/19 04:57:00;;;;;;;;;;;;;;;15.85;71.93;98058.34;2619523;28;19928;-82
2023/07/19 04:58:16;;;;;;;;;;;;;;;15.95;71.25;98058.72;2619506;28;19928;-81
2023/07/19 04:59:31;;;;;;;;;;;;;;;16.02;69.98;98041.59;2619249;28;19939;-81
2023/07/19 05:00:47;;;;;;;;;;;;;;;16.15;70.05;98046.19;2619175;28;20543;-81
2023/07/19 05:02:03;;;;;;;;;;;;;;;16.26;69.27;98042.91;2619557;28;19924;-81
2023/07/19 05:03:18;;;;;;;;;;;;;;;16.32;66.86;98038.13;2619434;28;19960;-81
2023/07/19 05:04:34;;;;;;;;;;;;;;;16.44;67.07;98048.94;2619121;28;19975;-81
2023/07/19 05:05:49;;;;;;;;;;;;;;;16.51;67.68;98042.34;2619144;28;20077;-82
2023/07/19 05:07:05;;;;;;;;;;;;;;;16.28;68.10;98043.69;2619710;28;19928;-81
2023/07/19 05:08:20;;;;;;;;;;;;;;;16.22;67.89;98042.25;2619256;28;19975;-81
2023/07/19 05:09:36;;;;;;;;;;;;;;;16.44;67.56;98044.47;2619304;28;19924;-81
2023/07/19 05:10:51;;;;;;;;;;;;;;;16.55;68.14;98043.84;2618730;28;19925;-82
2023/07/19 05:12:07;;;;;;;;;;;;;;;16.45;67.76;98043.53;2619133;28;19933;-82
2023/07/19 05:13:22;;;;;;;;;;;;;;;16.29;68.36;98042.75;2618084;28;19928;-82
2023/07/19 05:14:38;;;;;;;;;;;;;;;16.36;68.85;98057.31;2618893;28;20391;-82
2023/07/19 05:15:54;;;;;;;;;;;;;;;16.27;69.57;98055.19;2619525;28;19932;-82
2023/07/19 05:17:09;;;;;;;;;;;;;;;16.49;68.91;98049.50;2618166;28;19924;-82
2023/07/19 05:18:25;;;;;;;;;;;;;;;16.71;68.36;98050.91;2618803;28;20080;-83
2023/07/19 05:19:40;;;;;;;;;;;;;;;16.57;68.13;98051.69;2619258;28;20122;-81
2023/07/19 05:20:57;;;;;;;;;;;;;;;16.66;67.59;98059.09;2619408;28;19929;-82
2023/07/19 05:22:12;;;;;;;;;;;;;;;16.83;66.62;98050.13;2619381;28;19932;-82
2023/07/19 05:23:27;;;;;;;;;;;;;;;16.85;66.43;98050.06;2620327;28;19932;-82
2023/07/19 05:24:43;;;;;;;;;;;;;;;16.94;66.47;98054.78;2620954;28;20436;-82
2023/07/19 05:25:59;;;;;;;;;;;;;;;16.90;66.44;98054.13;2621273;28;19928;-82
2023/07/19 05:27:16;;;;;;;;;;;;;;;16.98;65.96;98056.31;2621403;28;19924;-82
2023/07/19 05:28:31;;;;;;;;;;;;;;;17.05;66.11;98052.38;2621804;28;19939;-81
2023/07/19 05:29:47;;;;;;;;;;;;;;;17.20;65.65;98049.75;2620668;28;19932;-81
2023/07/19 05:31:03;;;;;;;;;;;;;;;17.34;63.72;98047.09;2620997;28;19928;-81
2023/07/19 05:32:18;;;;;;;;;;;;;;;17.40;64.29;98045.00;2621099;28;19939;-82
2023/07/19 05:33:35;;;;;;;;;;;;;;;17.36;63.69;98045.19;2621700;28;19970;-82
2023/07/19 05:34:50;;;;;;;;;;;;;;;17.46;63.50;98037.53;2621421;28;19925;-82
2023/07/19 05:36:05;;;;;;;;;;;;;;;17.59;62.25;98044.69;2621181;28;20107;-82
2023/07/19 05:37:20;;;;;;;;;;;;;;;17.58;62.53;98046.47;2621382;28;20472;-82
2023/07/19 05:38:36;;;;;;;;;;;;;;;17.60;62.71;98044.63;2621287;28;19928;-82
2023/07/19 05:39:51;;;;;;;;;;;;;;;17.77;61.88;98047.97;2620078;28;19929;-82
2023/07/19 05:41:07;;;;;;;;;;;;;;;17.92;60.57;98046.13;2620890;28;19939;-82
2023/07/19 05:42:22;;;;;;;;;;;;;;;17.60;59.82;98044.63;2621387;28;20040;-82
2023/07/19 05:43:38;;;;;;;;;;;;;;;17.66;60.84;98053.94;2621165;28;19943;-81
2023/07/19 05:44:53;;;;;;;;;;;;;;;17.64;61.44;98050.53;2621079;28;19979;-82
2023/07/19 05:46:09;;;;;;;;;;;;;;;17.96;60.32;98052.94;2621515;28;19928;-82
2023/07/19 05:47:24;;;;;;;;;;;;;;;18.26;58.24;98048.41;2620338;28;19929;-82
2023/07/19 05:48:39;;;;;;;;;;;;;;;18.29;58.54;98043.75;2620223;28;19948;-82
2023/07/19 05:49:55;;;;;;;;;;;;;;;18.54;57.68;98043.91;2620243;28;20356;-82
2023/07/19 05:51:11;;;;;;;;;;;;;;;18.61;56.39;98047.88;2620405;28;19928;-82
2023/07/19 05:52:28;;;;;;;;;;;;;;;18.45;57.14;98046.25;2620779;28;20349;-82
2023/07/19 05:53:44;;;;;;;;;;;;;;;18.44;57.47;98049.00;2620381;28;19928;-82
2023/07/19 05:54:59;;;;;;;;;;;;;;;18.55;57.26;98048.25;2620869;28;19929;-82
2023/07/19 05:56:15;;;;;;;;;;;;;;;18.56;57.54;98045.53;2619654;28;19928;-82
2023/07/19 05:57:30;;;;;;;;;;;;;;;18.72;56.89;98039.19;2620025;28;19928;-82
2023/07/19 05:58:46;;;;;;;;;;;;;;;18.61;56.35;98037.25;2619607;28;19970;-82
2023/07/19 06:00:11;;;;;;;;;;;;;;;18.78;56.03;98039.59;2621271;28;19924;-82
2023/07/19 06:01:26;;;;;;;;;;;;;;;18.86;55.31;98036.44;2620052;28;19929;-82
2023/07/19 06:02:42;;;;;;;;;;;;;;;19.01;54.67;98037.22;2621061;28;19939;-82
2023/07/19 06:03:57;;;;;;;;;;;;;;;19.16;54.18;98037.09;2620548;28;19932;-82
2023/07/19 06:05:13;;;;;;;;;;;;;;;19.02;54.41;98038.91;2620362;28;20020;-81
2023/07/19 06:06:28;;;;;;;;;;;;;;;19.20;53.33;98041.22;2620707;28;20339;-82
2023/07/19 06:07:45;;;;;;;;;;;;;;;19.45;52.29;98036.84;2620329;28;19924;-82
2023/07/19 06:09:05;;;;;;;;;;;;;;;19.44;51.91;98033.31;2619685;28;20017;-81
2023/07/19 06:10:20;;;;;;;;;;;;;;;19.56;51.77;98030.75;2620833;28;19928;-81
2023/07/19 06:11:35;;;;;;;;;;;;;;;19.66;51.08;98028.28;2620575;28;20385;-82
2023/07/19 06:12:51;;;;;;;;;;;;;;;19.69;50.57;98028.06;2620406;28;19924;-82
2023/07/19 06:14:06;;;;;;;;;;;;;;;19.85;51.04;98033.13;2620257;28;19931;-82
2023/07/19 06:15:22;;;;;;;;;;;;;;;19.75;50.39;98032.94;2620703;28;19924;-82
2023/07/19 06:16:39;;;;;;;;;;;;;;;20.08;49.62;98030.63;2620230;28;19935;-82
2023/07/19 06:17:54;;;;;;;;;;;;;;;20.18;49.62;98027.16;2620119;28;19939;-82
2023/07/19 06:19:10;;;;;;;;;;;;;;;20.24;48.97;98030.31;2620328;28;20338;-82
2023/07/19 06:20:25;;;;;;;;;;;;;;;20.32;48.56;98022.63;2620118;28;19931;-81
2023/07/19 06:21:41;;;;;;;;;;;;;;;20.38;48.76;98022.16;2620760;28;20295;-82
2023/07/19 06:22:56;;;;;;;;;;;;;;;20.53;48.33;98022.81;2620852;28;19924;-82
2023/07/19 06:24:11;;;;;;;;;;;;;;;20.50;48.03;98025.72;2619706;28;19924;-82
2023/07/19 06:25:27;;;;;;;;;;;;;;;20.48;47.87;98026.78;2620528;28;19928;-82
2023/07/19 06:26:42;;;;;;;;;;;;;;;20.59;47.72;98026.81;2620614;28;19983;-85
2023/07/19 06:27:58;;;;;;;;;;;;;;;20.63;47.38;98022.94;2620926;28;19928;-82
2023/07/19 06:29:13;;;;;;;;;;;;;;;20.59;47.56;98037.47;2621219;28;20245;-82
2023/07/19 06:30:30;;;;;;;;;;;;;;;20.87;47.26;98030.88;2620662;28;20215;-82
2023/07/19 06:31:45;;;;;;;;;;;;;;;20.89;46.32;98038.75;2620987;28;20023;-82
2023/07/19 06:33:02;;;;;;;;;;;;;;;21.11;46.52;98037.09;2621184;28;19952;-82
2023/07/19 06:34:17;;;;;;;;;;;;;;;21.29;46.02;98033.00;2620625;28;20316;-82